sensor_id;sensor_type;location;lat;lon;timestamp;temperature;humidity
4739;DHT22;2383;48.632;10.156;2023-11-19T00:03:29;5.70;99.90
4739;DHT22;2383;48.632;10.156;2023-11-19T00:07:31;5.70;99.90
4739;DHT22;2383;48.632;10.156;2023-11-19T00:11:36;5.70;99.90
4739;DHT22;2383;48.632;10.156;2023-11-19T00:15:38;5.40;99.90
4739;DHT22;2383;48.632;10.156;2023-11-19T00:19:40;5.20;99.90
4739;DHT22;2383;48.632;10.156;2023-11-19T00:23:43;5.70;99.90
4739;DHT22;2383;48.632;10.156;2023-11-19T00:27:45;5.60;99.90
4739;DHT22;2383;48.632;10.156;2023-11-19T00:31:47;5.80;99.90
4739;DHT22;2383;48.632;10.156;2023-11-19T00:35:49;5.80;99.90
4739;DHT22;2383;48.632;10.156;2023-11-19T00:39:51;6.10;99.90
4739;DHT22;2383;48.632;10.156;2023-11-19T00:43:53;6.50;99.90
4739;DHT22;2383;48.632;10.156;2023-11-19T00:47:55;6.40;99.90
4739;DHT22;2383;48.632;10.156;2023-11-19T00:51:57;6.10;99.90
4739;DHT22;2383;48.632;10.156;2023-11-19T00:56:00;5.80;99.90
4739;DHT22;2383;48.632;10.156;2023-11-19T01:00:02;5.90;99.90
4739;DHT22;2383;48.632;10.156;2023-11-19T01:04:10;5.80;99.90
4739;DHT22;2383;48.632;10.156;2023-11-19T01:08:12;6.10;99.90
4739;DHT22;2383;48.632;10.156;2023-11-19T01:12:14;5.60;99.90
4739;DHT22;2383;48.632;10.156;2023-11-19T01:16:17;5.30;99.90
4739;DHT22;2383;48.632;10.156;2023-11-19T01:20:20;5.70;99.90
4739;DHT22;2383;48.632;10.156;2023-11-19T01:24:23;6.10;99.90
4739;DHT22;2383;48.632;10.156;2023-11-19T01:28:26;5.70;99.90
4739;DHT22;2383;48.632;10.156;2023-11-19T01:32:28;5.60;99.90
4739;DHT22;2383;48.632;10.156;2023-11-19T01:36:29;5.80;99.90
4739;DHT22;2383;48.632;10.156;2023-11-19T01:40:31;5.60;99.90
4739;DHT22;2383;48.632;10.156;2023-11-19T01:44:33;5.40;99.90
4739;DHT22;2383;48.632;10.156;2023-11-19T01:48:37;5.40;99.90
4739;DHT22;2383;48.632;10.156;2023-11-19T01:52:42;5.60;99.90
4739;DHT22;2383;48.632;10.156;2023-11-19T01:56:44;5.70;99.90
4739;DHT22;2383;48.632;10.156;2023-11-19T02:00:46;5.60;99.90
4739;DHT22;2383;48.632;10.156;2023-11-19T02:04:49;5.70;99.90
4739;DHT22;2383;48.632;10.156;2023-11-19T02:08:52;6.10;99.90
4739;DHT22;2383;48.632;10.156;2023-11-19T02:12:54;6.10;99.90
4739;DHT22;2383;48.632;10.156;2023-11-19T02:17:07;6.20;99.90
4739;DHT22;2383;48.632;10.156;2023-11-19T02:21:10;6.40;99.90
4739;DHT22;2383;48.632;10.156;2023-11-19T02:25:19;6.50;99.90
4739;DHT22;2383;48.632;10.156;2023-11-19T02:29:24;6.70;99.90
4739;DHT22;2383;48.632;10.156;2023-11-19T02:33:26;7.10;99.90
4739;DHT22;2383;48.632;10.156;2023-11-19T02:37:28;7.00;99.90
4739;DHT22;2383;48.632;10.156;2023-11-19T02:41:30;6.80;99.90
4739;DHT22;2383;48.632;10.156;2023-11-19T02:45:32;6.80;99.90
4739;DHT22;2383;48.632;10.156;2023-11-19T02:49:33;6.50;99.90
4739;DHT22;2383;48.632;10.156;2023-11-19T02:53:36;6.60;99.90
4739;DHT22;2383;48.632;10.156;2023-11-19T02:57:39;6.80;99.90
4739;DHT22;2383;48.632;10.156;2023-11-19T03:01:50;6.90;99.90
4739;DHT22;2383;48.632;10.156;2023-11-19T03:05:52;6.90;99.90
4739;DHT22;2383;48.632;10.156;2023-11-19T03:09:54;6.90;99.90
4739;DHT22;2383;48.632;10.156;2023-11-19T03:13:56;6.90;99.90
4739;DHT22;2383;48.632;10.156;2023-11-19T03:17:58;7.10;99.90
4739;DHT22;2383;48.632;10.156;2023-11-19T03:22:01;7.20;99.90
4739;DHT22;2383;48.632;10.156;2023-11-19T03:26:04;7.50;99.90
4739;DHT22;2383;48.632;10.156;2023-11-19T03:30:11;7.40;99.90
4739;DHT22;2383;48.632;10.156;2023-11-19T03:34:13;7.40;99.90
4739;DHT22;2383;48.632;10.156;2023-11-19T03:38:15;7.30;99.90
4739;DHT22;2383;48.632;10.156;2023-11-19T03:42:19;7.40;99.90
4739;DHT22;2383;48.632;10.156;2023-11-19T03:46:22;7.50;99.90
4739;DHT22;2383;48.632;10.156;2023-11-19T03:50:24;7.40;99.90
4739;DHT22;2383;48.632;10.156;2023-11-19T03:54:26;7.20;99.90
4739;DHT22;2383;48.632;10.156;2023-11-19T03:58:29;7.00;99.90
4739;DHT22;2383;48.632;10.156;2023-11-19T04:02:31;7.00;99.90
4739;DHT22;2383;48.632;10.156;2023-11-19T04:06:33;7.00;99.90
4739;DHT22;2383;48.632;10.156;2023-11-19T04:10:34;7.20;99.90
4739;DHT22;2383;48.632;10.156;2023-11-19T04:14:36;7.30;99.90
4739;DHT22;2383;48.632;10.156;2023-11-19T04:18:38;7.40;99.90
4739;DHT22;2383;48.632;10.156;2023-11-19T04:22:40;7.60;99.90
4739;DHT22;2383;48.632;10.156;2023-11-19T04:26:43;7.70;99.90
4739;DHT22;2383;48.632;10.156;2023-11-19T04:30:46;7.50;99.90
4739;DHT22;2383;48.632;10.156;2023-11-19T04:34:48;7.20;99.90
4739;DHT22;2383;48.632;10.156;2023-11-19T04:38:50;7.50;99.90
4739;DHT22;2383;48.632;10.156;2023-11-19T04:42:52;7.40;99.90
4739;DHT22;2383;48.632;10.156;2023-11-19T04:46:54;7.80;99.90
4739;DHT22;2383;48.632;10.156;2023-11-19T04:50:56;7.80;99.90
4739;DHT22;2383;48.632;10.156;2023-11-19T04:54:57;7.80;99.90
4739;DHT22;2383;48.632;10.156;2023-11-19T04:58:59;7.80;99.90
4739;DHT22;2383;48.632;10.156;2023-11-19T05:03:01;7.90;99.90
4739;DHT22;2383;48.632;10.156;2023-11-19T05:07:04;7.90;99.90
4739;DHT22;2383;48.632;10.156;2023-11-19T05:11:06;7.90;99.90
4739;DHT22;2383;48.632;10.156;2023-11-19T05:15:08;7.90;99.90
4739;DHT22;2383;48.632;10.156;2023-11-19T05:19:10;7.70;99.90
4739;DHT22;2383;48.632;10.156;2023-11-19T05:23:12;7.90;99.90
4739;DHT22;2383;48.632;10.156;2023-11-19T05:27:17;8.00;99.90
4739;DHT22;2383;48.632;10.156;2023-11-19T05:31:19;8.10;99.90
4739;DHT22;2383;48.632;10.156;2023-11-19T05:35:21;8.10;99.90
4739;DHT22;2383;48.632;10.156;2023-11-19T05:39:23;7.90;99.90
4739;DHT22;2383;48.632;10.156;2023-11-19T05:43:25;8.30;99.90
4739;DHT22;2383;48.632;10.156;2023-11-19T05:47:27;8.00;99.90
4739;DHT22;2383;48.632;10.156;2023-11-19T05:51:29;8.00;99.90
4739;DHT22;2383;48.632;10.156;2023-11-19T05:55:33;8.20;99.90
4739;DHT22;2383;48.632;10.156;2023-11-19T05:59:36;8.20;99.90
4739;DHT22;2383;48.632;10.156;2023-11-19T06:03:38;8.20;99.90
4739;DHT22;2383;48.632;10.156;2023-11-19T06:07:40;8.20;99.90
4739;DHT22;2383;48.632;10.156;2023-11-19T06:11:43;8.20;99.90
4739;DHT22;2383;48.632;10.156;2023-11-19T06:15:46;8.20;99.90
4739;DHT22;2383;48.632;10.156;2023-11-19T06:19:48;7.80;99.90
4739;DHT22;2383;48.632;10.156;2023-11-19T06:23:50;7.90;99.90
4739;DHT22;2383;48.632;10.156;2023-11-19T06:27:53;8.10;99.90
4739;DHT22;2383;48.632;10.156;2023-11-19T06:31:55;8.20;99.90
4739;DHT22;2383;48.632;10.156;2023-11-19T06:35:59;8.10;99.90
4739;DHT22;2383;48.632;10.156;2023-11-19T06:40:02;8.00;99.90
4739;DHT22;2383;48.632;10.156;2023-11-19T06:44:04;7.90;99.90
4739;DHT22;2383;48.632;10.156;2023-11-19T06:48:07;8.00;99.90
4739;DHT22;2383;48.632;10.156;2023-11-19T06:52:09;8.00;99.90
4739;DHT22;2383;48.632;10.156;2023-11-19T06:56:20;7.90;99.90
4739;DHT22;2383;48.632;10.156;2023-11-19T07:00:23;7.40;99.90
4739;DHT22;2383;48.632;10.156;2023-11-19T07:04:25;7.30;99.90
4739;DHT22;2383;48.632;10.156;2023-11-19T07:08:27;7.60;99.90
4739;DHT22;2383;48.632;10.156;2023-11-19T07:12:29;7.70;99.90
4739;DHT22;2383;48.632;10.156;2023-11-19T07:16:31;7.60;99.90
4739;DHT22;2383;48.632;10.156;2023-11-19T07:20:32;7.50;99.90
4739;DHT22;2383;48.632;10.156;2023-11-19T07:24:34;7.90;99.90
4739;DHT22;2383;48.632;10.156;2023-11-19T07:28:36;7.70;99.90
4739;DHT22;2383;48.632;10.156;2023-11-19T07:32:38;7.40;99.90
4739;DHT22;2383;48.632;10.156;2023-11-19T07:36:40;7.70;99.90
4739;DHT22;2383;48.632;10.156;2023-11-19T07:40:42;7.60;99.90
4739;DHT22;2383;48.632;10.156;2023-11-19T07:44:57;7.60;99.90
4739;DHT22;2383;48.632;10.156;2023-11-19T07:48:59;7.70;99.90
4739;DHT22;2383;48.632;10.156;2023-11-19T07:53:01;8.00;99.90
4739;DHT22;2383;48.632;10.156;2023-11-19T07:57:06;8.00;99.90
4739;DHT22;2383;48.632;10.156;2023-11-19T08:01:08;8.40;99.90
4739;DHT22;2383;48.632;10.156;2023-11-19T08:05:10;8.50;99.90
4739;DHT22;2383;48.632;10.156;2023-11-19T08:09:13;8.40;99.90
4739;DHT22;2383;48.632;10.156;2023-11-19T08:13:15;8.30;99.90
4739;DHT22;2383;48.632;10.156;2023-11-19T08:17:19;7.50;99.90
4739;DHT22;2383;48.632;10.156;2023-11-19T08:21:21;7.60;99.90
4739;DHT22;2383;48.632;10.156;2023-11-19T08:25:24;7.70;99.90
4739;DHT22;2383;48.632;10.156;2023-11-19T08:29:26;8.30;99.90
4739;DHT22;2383;48.632;10.156;2023-11-19T08:33:29;8.00;99.90
4739;DHT22;2383;48.632;10.156;2023-11-19T08:37:31;8.30;99.90
4739;DHT22;2383;48.632;10.156;2023-11-19T08:41:33;7.80;99.90
4739;DHT22;2383;48.632;10.156;2023-11-19T08:45:35;7.90;99.90
4739;DHT22;2383;48.632;10.156;2023-11-19T08:49:38;8.30;99.90
4739;DHT22;2383;48.632;10.156;2023-11-19T08:53:40;8.70;99.90
4739;DHT22;2383;48.632;10.156;2023-11-19T08:57:42;8.30;99.90
4739;DHT22;2383;48.632;10.156;2023-11-19T09:01:44;8.40;99.90
4739;DHT22;2383;48.632;10.156;2023-11-19T09:05:46;8.20;99.90
4739;DHT22;2383;48.632;10.156;2023-11-19T09:09:48;8.60;99.90
4739;DHT22;2383;48.632;10.156;2023-11-19T09:13:50;8.30;99.90
4739;DHT22;2383;48.632;10.156;2023-11-19T09:17:52;7.60;99.90
4739;DHT22;2383;48.632;10.156;2023-11-19T09:21:54;7.50;99.90
4739;DHT22;2383;48.632;10.156;2023-11-19T09:25:56;7.40;99.90
4739;DHT22;2383;48.632;10.156;2023-11-19T09:29:58;7.80;99.90
4739;DHT22;2383;48.632;10.156;2023-11-19T09:34:01;8.00;99.90
4739;DHT22;2383;48.632;10.156;2023-11-19T09:38:02;7.90;99.90
4739;DHT22;2383;48.632;10.156;2023-11-19T09:42:07;8.60;99.90
4739;DHT22;2383;48.632;10.156;2023-11-19T09:46:13;8.70;99.90
4739;DHT22;2383;48.632;10.156;2023-11-19T09:50:18;9.20;99.90
4739;DHT22;2383;48.632;10.156;2023-11-19T09:54:20;9.30;99.90
4739;DHT22;2383;48.632;10.156;2023-11-19T09:58:22;9.00;99.90
4739;DHT22;2383;48.632;10.156;2023-11-19T10:02:24;9.40;99.90
4739;DHT22;2383;48.632;10.156;2023-11-19T10:06:29;9.80;99.90
4739;DHT22;2383;48.632;10.156;2023-11-19T10:10:31;9.50;99.90
4739;DHT22;2383;48.632;10.156;2023-11-19T10:14:34;9.50;99.90
4739;DHT22;2383;48.632;10.156;2023-11-19T10:18:46;9.70;99.90
4739;DHT22;2383;48.632;10.156;2023-11-19T10:22:52;10.20;99.90
4739;DHT22;2383;48.632;10.156;2023-11-19T10:26:57;10.40;99.90
4739;DHT22;2383;48.632;10.156;2023-11-19T10:30:59;10.90;99.90
4739;DHT22;2383;48.632;10.156;2023-11-19T10:35:07;10.60;99.90
4739;DHT22;2383;48.632;10.156;2023-11-19T10:39:09;10.70;99.90
4739;DHT22;2383;48.632;10.156;2023-11-19T10:43:11;10.50;99.90
4739;DHT22;2383;48.632;10.156;2023-11-19T10:47:18;10.50;99.90
4739;DHT22;2383;48.632;10.156;2023-11-19T10:51:20;10.10;99.90
4739;DHT22;2383;48.632;10.156;2023-11-19T10:55:33;10.20;99.90
4739;DHT22;2383;48.632;10.156;2023-11-19T10:59:37;9.90;99.90
4739;DHT22;2383;48.632;10.156;2023-11-19T11:03:40;9.40;99.90
4739;DHT22;2383;48.632;10.156;2023-11-19T11:07:43;10.00;99.90
4739;DHT22;2383;48.632;10.156;2023-11-19T11:11:47;10.10;99.90
4739;DHT22;2383;48.632;10.156;2023-11-19T11:15:49;9.80;99.90
4739;DHT22;2383;48.632;10.156;2023-11-19T11:19:52;9.50;99.90
4739;DHT22;2383;48.632;10.156;2023-11-19T11:28:58;10.30;99.90
4739;DHT22;2383;48.632;10.156;2023-11-19T11:37:46;11.00;99.90
4739;DHT22;2383;48.632;10.156;2023-11-19T11:50:36;11.60;99.90
4739;DHT22;2383;48.632;10.156;2023-11-19T11:54:48;10.80;99.90
4739;DHT22;2383;48.632;10.156;2023-11-19T11:58:50;10.20;99.90
4739;DHT22;2383;48.632;10.156;2023-11-19T12:02:55;10.40;99.90
4739;DHT22;2383;48.632;10.156;2023-11-19T12:07:07;10.10;99.90
4739;DHT22;2383;48.632;10.156;2023-11-19T12:11:10;9.60;99.90
4739;DHT22;2383;48.632;10.156;2023-11-19T12:15:12;10.40;99.90
4739;DHT22;2383;48.632;10.156;2023-11-19T12:19:16;10.20;99.90
4739;DHT22;2383;48.632;10.156;2023-11-19T12:23:20;10.10;99.90
4739;DHT22;2383;48.632;10.156;2023-11-19T12:27:22;10.80;99.90
4739;DHT22;2383;48.632;10.156;2023-11-19T12:31:24;10.30;99.90
4739;DHT22;2383;48.632;10.156;2023-11-19T12:35:26;10.60;99.90
4739;DHT22;2383;48.632;10.156;2023-11-19T12:39:30;10.20;99.90
4739;DHT22;2383;48.632;10.156;2023-11-19T12:43:32;10.60;99.90
4739;DHT22;2383;48.632;10.156;2023-11-19T12:48:05;10.70;99.90
4739;DHT22;2383;48.632;10.156;2023-11-19T12:52:13;10.80;99.90
4739;DHT22;2383;48.632;10.156;2023-11-19T12:56:15;10.30;99.90
4739;DHT22;2383;48.632;10.156;2023-11-19T13:00:24;10.80;99.90
4739;DHT22;2383;48.632;10.156;2023-11-19T13:04:30;10.40;99.90
4739;DHT22;2383;48.632;10.156;2023-11-19T13:08:42;9.90;99.90
4739;DHT22;2383;48.632;10.156;2023-11-19T13:13:00;10.10;99.90
4739;DHT22;2383;48.632;10.156;2023-11-19T13:17:02;10.20;99.90
4739;DHT22;2383;48.632;10.156;2023-11-19T13:21:04;9.90;99.90
4739;DHT22;2383;48.632;10.156;2023-11-19T13:25:07;9.60;99.90
4739;DHT22;2383;48.632;10.156;2023-11-19T13:29:09;9.70;99.90
4739;DHT22;2383;48.632;10.156;2023-11-19T13:33:12;9.50;99.90
4739;DHT22;2383;48.632;10.156;2023-11-19T13:37:14;9.70;99.90
4739;DHT22;2383;48.632;10.156;2023-11-19T13:41:16;10.50;99.90
4739;DHT22;2383;48.632;10.156;2023-11-19T13:45:19;10.20;99.90
4739;DHT22;2383;48.632;10.156;2023-11-19T13:49:22;10.40;99.90
4739;DHT22;2383;48.632;10.156;2023-11-19T13:53:25;9.70;99.90
4739;DHT22;2383;48.632;10.156;2023-11-19T13:57:30;10.20;99.90
4739;DHT22;2383;48.632;10.156;2023-11-19T14:01:32;10.70;99.90
4739;DHT22;2383;48.632;10.156;2023-11-19T14:05:34;10.50;99.90
4739;DHT22;2383;48.632;10.156;2023-11-19T14:09:39;10.70;99.90
4739;DHT22;2383;48.632;10.156;2023-11-19T14:13:43;10.50;99.90
4739;DHT22;2383;48.632;10.156;2023-11-19T14:17:45;9.60;99.90
4739;DHT22;2383;48.632;10.156;2023-11-19T14:21:47;10.30;99.90
4739;DHT22;2383;48.632;10.156;2023-11-19T14:25:49;10.50;99.90
4739;DHT22;2383;48.632;10.156;2023-11-19T14:29:51;10.50;99.90
4739;DHT22;2383;48.632;10.156;2023-11-19T14:33:53;10.90;99.90
4739;DHT22;2383;48.632;10.156;2023-11-19T14:37:58;10.70;99.90
4739;DHT22;2383;48.632;10.156;2023-11-19T14:42:00;10.60;99.90
4739;DHT22;2383;48.632;10.156;2023-11-19T14:46:06;10.80;99.90
4739;DHT22;2383;48.632;10.156;2023-11-19T14:50:08;10.90;99.90
4739;DHT22;2383;48.632;10.156;2023-11-19T14:54:10;11.00;99.90
4739;DHT22;2383;48.632;10.156;2023-11-19T14:58:12;10.70;99.90
4739;DHT22;2383;48.632;10.156;2023-11-19T15:02:18;11.20;99.90
4739;DHT22;2383;48.632;10.156;2023-11-19T15:06:23;11.30;99.90
4739;DHT22;2383;48.632;10.156;2023-11-19T15:10:26;11.00;99.90
4739;DHT22;2383;48.632;10.156;2023-11-19T15:14:28;11.40;99.90
4739;DHT22;2383;48.632;10.156;2023-11-19T15:18:31;11.30;99.90
4739;DHT22;2383;48.632;10.156;2023-11-19T15:22:33;11.00;99.90
4739;DHT22;2383;48.632;10.156;2023-11-19T15:26:35;11.10;99.90
4739;DHT22;2383;48.632;10.156;2023-11-19T15:30:37;11.40;99.90
4739;DHT22;2383;48.632;10.156;2023-11-19T15:34:39;11.20;99.90
4739;DHT22;2383;48.632;10.156;2023-11-19T15:38:43;10.40;99.90
4739;DHT22;2383;48.632;10.156;2023-11-19T15:42:48;10.20;99.90
4739;DHT22;2383;48.632;10.156;2023-11-19T15:46:50;10.60;99.90
4739;DHT22;2383;48.632;10.156;2023-11-19T15:50:52;10.60;99.90
4739;DHT22;2383;48.632;10.156;2023-11-19T15:54:54;10.50;99.90
4739;DHT22;2383;48.632;10.156;2023-11-19T15:58:56;10.30;99.90
4739;DHT22;2383;48.632;10.156;2023-11-19T16:02:58;10.30;99.90
4739;DHT22;2383;48.632;10.156;2023-11-19T16:07:00;9.90;99.90
4739;DHT22;2383;48.632;10.156;2023-11-19T16:11:02;10.10;99.90
4739;DHT22;2383;48.632;10.156;2023-11-19T16:15:04;9.90;99.90
4739;DHT22;2383;48.632;10.156;2023-11-19T16:19:07;10.30;99.90
4739;DHT22;2383;48.632;10.156;2023-11-19T16:23:09;10.20;99.90
4739;DHT22;2383;48.632;10.156;2023-11-19T16:27:11;10.40;99.90
4739;DHT22;2383;48.632;10.156;2023-11-19T16:31:17;10.70;99.90
4739;DHT22;2383;48.632;10.156;2023-11-19T16:35:19;10.70;99.90
4739;DHT22;2383;48.632;10.156;2023-11-19T16:39:21;10.80;99.90
4739;DHT22;2383;48.632;10.156;2023-11-19T16:43:24;10.70;99.90
4739;DHT22;2383;48.632;10.156;2023-11-19T16:47:29;10.60;99.90
4739;DHT22;2383;48.632;10.156;2023-11-19T16:51:31;10.70;99.90
4739;DHT22;2383;48.632;10.156;2023-11-19T16:55:33;10.50;99.90
4739;DHT22;2383;48.632;10.156;2023-11-19T16:59:36;10.40;99.90
4739;DHT22;2383;48.632;10.156;2023-11-19T17:03:38;10.10;99.90
4739;DHT22;2383;48.632;10.156;2023-11-19T17:07:40;10.10;99.90
4739;DHT22;2383;48.632;10.156;2023-11-19T17:11:42;10.00;99.90
4739;DHT22;2383;48.632;10.156;2023-11-19T17:15:45;9.70;99.90
4739;DHT22;2383;48.632;10.156;2023-11-19T17:19:47;9.90;99.90
4739;DHT22;2383;48.632;10.156;2023-11-19T17:23:49;9.60;99.90
4739;DHT22;2383;48.632;10.156;2023-11-19T17:27:50;9.20;99.90
4739;DHT22;2383;48.632;10.156;2023-11-19T17:31:53;9.50;99.90
4739;DHT22;2383;48.632;10.156;2023-11-19T17:35:54;9.40;99.90
4739;DHT22;2383;48.632;10.156;2023-11-19T17:39:57;9.60;99.90
4739;DHT22;2383;48.632;10.156;2023-11-19T17:43:59;9.50;99.90
4739;DHT22;2383;48.632;10.156;2023-11-19T17:48:02;9.40;99.90
4739;DHT22;2383;48.632;10.156;2023-11-19T17:52:04;9.30;99.90
4739;DHT22;2383;48.632;10.156;2023-11-19T17:56:06;9.10;99.90
4739;DHT22;2383;48.632;10.156;2023-11-19T18:00:09;9.10;99.90
4739;DHT22;2383;48.632;10.156;2023-11-19T18:04:17;9.10;99.90
4739;DHT22;2383;48.632;10.156;2023-11-19T18:08:19;9.10;99.90
4739;DHT22;2383;48.632;10.156;2023-11-19T18:12:24;9.10;99.90
4739;DHT22;2383;48.632;10.156;2023-11-19T18:16:26;9.30;99.90
4739;DHT22;2383;48.632;10.156;2023-11-19T18:20:28;9.10;99.90
4739;DHT22;2383;48.632;10.156;2023-11-19T18:24:29;8.70;99.90
4739;DHT22;2383;48.632;10.156;2023-11-19T18:28:32;8.80;99.90
4739;DHT22;2383;48.632;10.156;2023-11-19T18:32:34;8.90;99.90
4739;DHT22;2383;48.632;10.156;2023-11-19T18:36:37;8.50;99.90
4739;DHT22;2383;48.632;10.156;2023-11-19T18:40:39;8.60;99.90
4739;DHT22;2383;48.632;10.156;2023-11-19T18:44:41;8.80;99.90
4739;DHT22;2383;48.632;10.156;2023-11-19T18:48:43;8.80;99.90
4739;DHT22;2383;48.632;10.156;2023-11-19T18:52:45;8.90;99.90
4739;DHT22;2383;48.632;10.156;2023-11-19T18:56:47;8.80;99.90
4739;DHT22;2383;48.632;10.156;2023-11-19T19:00:49;8.80;99.90
4739;DHT22;2383;48.632;10.156;2023-11-19T19:04:52;8.80;99.90
4739;DHT22;2383;48.632;10.156;2023-11-19T19:08:54;8.90;99.90
4739;DHT22;2383;48.632;10.156;2023-11-19T19:12:56;8.10;99.90
4739;DHT22;2383;48.632;10.156;2023-11-19T19:16:59;8.20;99.90
4739;DHT22;2383;48.632;10.156;2023-11-19T19:21:01;8.30;99.90
4739;DHT22;2383;48.632;10.156;2023-11-19T19:25:03;8.40;99.90
4739;DHT22;2383;48.632;10.156;2023-11-19T19:29:06;8.10;99.90
4739;DHT22;2383;48.632;10.156;2023-11-19T19:33:08;8.10;99.90
4739;DHT22;2383;48.632;10.156;2023-11-19T19:37:10;8.00;99.90
4739;DHT22;2383;48.632;10.156;2023-11-19T19:41:12;8.20;99.90
4739;DHT22;2383;48.632;10.156;2023-11-19T19:45:15;8.30;99.90
4739;DHT22;2383;48.632;10.156;2023-11-19T19:49:17;8.20;99.90
4739;DHT22;2383;48.632;10.156;2023-11-19T19:53:19;8.60;99.90
4739;DHT22;2383;48.632;10.156;2023-11-19T19:57:21;8.40;99.90
4739;DHT22;2383;48.632;10.156;2023-11-19T20:01:23;8.60;99.90
4739;DHT22;2383;48.632;10.156;2023-11-19T20:05:25;8.70;99.90
4739;DHT22;2383;48.632;10.156;2023-11-19T20:09:28;8.80;99.90
4739;DHT22;2383;48.632;10.156;2023-11-19T20:13:32;9.00;99.90
4739;DHT22;2383;48.632;10.156;2023-11-19T20:17:34;8.90;99.90
4739;DHT22;2383;48.632;10.156;2023-11-19T20:21:36;8.50;99.90
4739;DHT22;2383;48.632;10.156;2023-11-19T20:25:38;8.80;99.90
4739;DHT22;2383;48.632;10.156;2023-11-19T20:29:41;9.00;99.90
4739;DHT22;2383;48.632;10.156;2023-11-19T20:33:43;8.10;99.90
4739;DHT22;2383;48.632;10.156;2023-11-19T20:37:46;8.70;99.90
4739;DHT22;2383;48.632;10.156;2023-11-19T20:41:48;9.00;99.90
4739;DHT22;2383;48.632;10.156;2023-11-19T20:45:50;9.10;99.90
4739;DHT22;2383;48.632;10.156;2023-11-19T20:49:53;8.90;99.90
4739;DHT22;2383;48.632;10.156;2023-11-19T20:53:54;8.60;99.90
4739;DHT22;2383;48.632;10.156;2023-11-19T20:57:56;8.20;99.90
4739;DHT22;2383;48.632;10.156;2023-11-19T21:01:59;8.60;99.90
4739;DHT22;2383;48.632;10.156;2023-11-19T21:06:01;8.40;99.90
4739;DHT22;2383;48.632;10.156;2023-11-19T21:10:03;8.70;99.90
4739;DHT22;2383;48.632;10.156;2023-11-19T21:14:06;8.70;99.90
4739;DHT22;2383;48.632;10.156;2023-11-19T21:18:08;8.80;99.90
4739;DHT22;2383;48.632;10.156;2023-11-19T21:22:12;9.00;99.90
4739;DHT22;2383;48.632;10.156;2023-11-19T21:26:15;8.90;99.90
4739;DHT22;2383;48.632;10.156;2023-11-19T21:30:17;9.00;99.90
4739;DHT22;2383;48.632;10.156;2023-11-19T21:34:19;7.90;99.90
4739;DHT22;2383;48.632;10.156;2023-11-19T21:38:24;8.60;99.90
4739;DHT22;2383;48.632;10.156;2023-11-19T21:42:26;8.90;99.90
4739;DHT22;2383;48.632;10.156;2023-11-19T21:46:28;8.50;99.90
4739;DHT22;2383;48.632;10.156;2023-11-19T21:50:32;8.60;99.90
4739;DHT22;2383;48.632;10.156;2023-11-19T21:54:33;8.50;99.90
4739;DHT22;2383;48.632;10.156;2023-11-19T21:58:36;8.00;99.90
4739;DHT22;2383;48.632;10.156;2023-11-19T22:02:38;8.90;99.90
4739;DHT22;2383;48.632;10.156;2023-11-19T22:06:40;9.00;99.90
4739;DHT22;2383;48.632;10.156;2023-11-19T22:10:42;8.80;99.90
4739;DHT22;2383;48.632;10.156;2023-11-19T22:14:44;8.60;99.90
4739;DHT22;2383;48.632;10.156;2023-11-19T22:18:47;8.20;99.90
4739;DHT22;2383;48.632;10.156;2023-11-19T22:22:49;7.90;99.90
4739;DHT22;2383;48.632;10.156;2023-11-19T22:26:52;7.60;99.90
4739;DHT22;2383;48.632;10.156;2023-11-19T22:30:54;7.30;99.90
4739;DHT22;2383;48.632;10.156;2023-11-19T22:34:56;6.90;99.90
4739;DHT22;2383;48.632;10.156;2023-11-19T22:38:58;7.00;99.90
4739;DHT22;2383;48.632;10.156;2023-11-19T22:43:00;6.90;99.90
4739;DHT22;2383;48.632;10.156;2023-11-19T22:47:02;7.10;99.90
4739;DHT22;2383;48.632;10.156;2023-11-19T22:51:04;7.10;99.90
4739;DHT22;2383;48.632;10.156;2023-11-19T22:55:06;7.50;99.90
4739;DHT22;2383;48.632;10.156;2023-11-19T22:59:08;7.20;99.90
4739;DHT22;2383;48.632;10.156;2023-11-19T23:03:10;8.20;99.90
4739;DHT22;2383;48.632;10.156;2023-11-19T23:07:12;8.50;99.90
4739;DHT22;2383;48.632;10.156;2023-11-19T23:11:14;8.50;99.90
4739;DHT22;2383;48.632;10.156;2023-11-19T23:15:18;8.60;99.90
4739;DHT22;2383;48.632;10.156;2023-11-19T23:19:20;8.30;99.90
4739;DHT22;2383;48.632;10.156;2023-11-19T23:23:22;8.10;99.90
4739;DHT22;2383;48.632;10.156;2023-11-19T23:27:24;8.00;99.90
4739;DHT22;2383;48.632;10.156;2023-11-19T23:31:26;8.80;99.90
4739;DHT22;2383;48.632;10.156;2023-11-19T23:35:28;8.60;99.90
4739;DHT22;2383;48.632;10.156;2023-11-19T23:39:30;8.60;99.90
4739;DHT22;2383;48.632;10.156;2023-11-19T23:43:32;8.70;99.90
4739;DHT22;2383;48.632;10.156;2023-11-19T23:47:35;8.30;99.90
4739;DHT22;2383;48.632;10.156;2023-11-19T23:51:37;8.00;99.90
4739;DHT22;2383;48.632;10.156;2023-11-19T23:55:42;8.60;99.90
4739;DHT22;2383;48.632;10.156;2023-11-19T23:59:45;8.50;99.90
